Time;durP1;ratioP1;P1;durP2;ratioP2;P2;SDS_P1;SDS_P2;PMS_P1;PMS_P2;Temp;Humidity;BMP_temperature;BMP_pressure;BME280_temperature;BME280_humidity;BME280_pressure;Samples;Min_cycle;Max_cycle;Signal;HPM_P1;HPM_P2
2023/04/13 00:35:28;;;;;;;8.23;3.78;;;;;;;;;;6239240;22;20034;31
2023/04/13 01:49:09;;;;;;;11.63;3.03;;;;;;;;;;6353483;22;20022;-79
2023/04/13 01:51:37;;;;;;;8.95;3.17;;;;;;;;;;6326751;22;20002;-82
2023/04/13 01:54:10;;;;;;;7.03;2.70;;;;;;;;;;6328974;22;20010;-80
2023/04/13 01:56:37;;;;;;;8.07;2.47;;;;;;;;;;6325465;22;19991;-81
2023/04/13 01:59:04;;;;;;;3.72;2.38;;;;;;;;;;6326129;22;20006;-82
2023/04/13 02:01:30;;;;;;;9.18;2.67;;;;;;;;;;6325586;22;20003;-81
2023/04/13 02:03:56;;;;;;;8.40;2.83;;;;;;;;;;6355456;22;19998;-81
2023/04/13 02:06:23;;;;;;;6.95;3.10;;;;;;;;;;6326427;22;20022;-80
2023/04/13 02:08:49;;;;;;;8.13;3.15;;;;;;;;;;6354118;22;20007;-80
2023/04/13 02:11:19;;;;;;;7.10;2.60;;;;;;;;;;6325857;22;20076;-80
2023/04/13 02:13:45;;;;;;;13.90;2.90;;;;;;;;;;6353557;22;20030;-79
2023/04/13 02:16:11;;;;;;;7.30;2.88;;;;;;;;;;6353136;22;20002;-81
2023/04/13 02:18:37;;;;;;;7.88;4.10;;;;;;;;;;6352428;22;19998;-81
2023/04/13 02:21:12;;;;;;;6.82;3.10;;;;;;;;;;6326270;22;20010;-80
2023/04/13 02:23:39;;;;;;;10.20;2.67;;;;;;;;;;6326758;22;20002;-81
2023/04/13 02:26:09;;;;;;;6.30;2.58;;;;;;;;;;6354300;22;20013;-80
2023/04/13 02:28:35;;;;;;;9.98;3.28;;;;;;;;;;6354374;22;20050;-80
2023/04/13 02:31:04;;;;;;;12.20;3.40;;;;;;;;;;6327920;22;20026;-81
2023/04/13 02:33:31;;;;;;;3.42;2.33;;;;;;;;;;6327259;22;19994;-82
2023/04/13 02:36:04;;;;;;;3.10;1.80;;;;;;;;;;6327609;22;19999;-82
2023/04/13 02:38:30;;;;;;;13.13;2.70;;;;;;;;;;6328242;22;20009;-81
2023/04/13 02:40:58;;;;;;;4.70;2.30;;;;;;;;;;6326850;22;20006;-82
2023/04/13 02:43:30;;;;;;;9.10;3.17;;;;;;;;;;6356154;22;19999;-81
2023/04/13 02:45:57;;;;;;;3.33;2.00;;;;;;;;;;6354563;22;20077;-80
2023/04/13 02:48:24;;;;;;;10.13;3.03;;;;;;;;;;6353008;22;20015;-79
2023/04/13 02:50:50;;;;;;;6.95;2.70;;;;;;;;;;6349878;22;20010;-81
2023/04/13 02:53:17;;;;;;;5.70;2.00;;;;;;;;;;6325424;22;20003;-81
2023/04/13 02:55:43;;;;;;;3.25;1.83;;;;;;;;;;6325104;22;19999;-80
2023/04/13 02:58:10;;;;;;;5.45;2.30;;;;;;;;;;6324389;22;20010;-80
2023/04/13 03:00:37;;;;;;;4.55;2.03;;;;;;;;;;6324088;22;20032;-80
2023/04/13 03:03:03;;;;;;;3.90;2.13;;;;;;;;;;6351701;22;20002;-81
2023/04/13 03:05:33;;;;;;;5.10;2.72;;;;;;;;;;6323252;22;20003;-81
2023/04/13 03:07:59;;;;;;;6.63;2.65;;;;;;;;;;6322487;22;20015;-80
2023/04/13 03:10:25;;;;;;;4.45;2.25;;;;;;;;;;6348994;22;20471;-79
2023/04/13 03:12:52;;;;;;;7.80;2.20;;;;;;;;;;6353614;22;20366;-80
2023/04/13 03:15:18;;;;;;;4.80;2.22;;;;;;;;;;6328133;22;19999;-80
2023/04/13 03:17:45;;;;;;;5.63;2.30;;;;;;;;;;6327378;22;20006;-81
2023/04/13 03:20:12;;;;;;;5.47;2.20;;;;;;;;;;6323652;22;20003;-80
2023/04/13 03:22:38;;;;;;;5.00;2.42;;;;;;;;;;6324470;22;20042;-81
2023/04/13 03:25:05;;;;;;;7.25;2.40;;;;;;;;;;6352879;22;20006;-79
2023/04/13 03:27:31;;;;;;;6.20;2.33;;;;;;;;;;6331763;22;20030;-80
2023/04/13 03:29:57;;;;;;;5.18;2.00;;;;;;;;;;6331501;22;20006;-80
2023/04/13 03:32:24;;;;;;;5.03;2.33;;;;;;;;;;6328913;22;20528;-81
2023/04/13 03:34:50;;;;;;;6.00;2.17;;;;;;;;;;6357887;22;19995;-79
2023/04/13 03:37:17;;;;;;;3.72;2.13;;;;;;;;;;6327990;22;19998;-81
2023/04/13 03:39:43;;;;;;;7.38;2.58;;;;;;;;;;6327749;22;20549;-81
2023/04/13 03:42:09;;;;;;;2.83;2.00;;;;;;;;;;6327216;22;19998;-80
2023/04/13 03:44:35;;;;;;;5.13;2.10;;;;;;;;;;6356048;22;20013;-82
2023/04/13 03:47:01;;;;;;;5.10;2.20;;;;;;;;;;6356142;22;20003;-81
2023/04/13 03:49:29;;;;;;;4.22;2.28;;;;;;;;;;6327546;22;20027;-80
2023/04/13 03:51:55;;;;;;;4.75;2.15;;;;;;;;;;6350943;22;20023;-79
2023/04/13 03:54:22;;;;;;;4.22;2.38;;;;;;;;;;6350870;22;20010;-80
2023/04/13 03:56:48;;;;;;;5.28;2.33;;;;;;;;;;6351022;22;20002;-80
2023/04/13 03:59:14;;;;;;;4.03;1.83;;;;;;;;;;6353947;22;19999;-79
2023/04/13 04:01:40;;;;;;;5.32;2.10;;;;;;;;;;6336438;22;20014;-80
2023/04/13 04:04:07;;;;;;;5.50;2.42;;;;;;;;;;6326192;22;20025;-80
2023/04/13 04:06:33;;;;;;;4.95;2.60;;;;;;;;;;6325682;22;19998;-80
2023/04/13 04:08:59;;;;;;;4.00;2.28;;;;;;;;;;6323874;22;20063;-79
2023/04/13 04:11:25;;;;;;;6.28;3.00;;;;;;;;;;6323865;22;20002;-80
2023/04/13 04:13:52;;;;;;;4.25;2.45;;;;;;;;;;6322402;22;20416;-80
2023/04/13 04:16:18;;;;;;;4.22;2.30;;;;;;;;;;6351572;22;19999;-81
2023/04/13 04:18:44;;;;;;;4.20;1.80;;;;;;;;;;6352019;22;20018;-80
2023/04/13 04:21:12;;;;;;;3.25;2.30;;;;;;;;;;6327643;22;20026;-81
2023/04/13 04:23:38;;;;;;;7.05;2.33;;;;;;;;;;6329424;22;20007;-80
2023/04/13 04:26:05;;;;;;;5.57;2.10;;;;;;;;;;6327789;22;20002;-80
2023/04/13 04:28:37;;;;;;;3.80;2.50;;;;;;;;;;6354389;22;19999;-80
2023/04/13 04:31:03;;;;;;;5.22;1.83;;;;;;;;;;6355231;22;20005;-80
2023/04/13 04:33:30;;;;;;;2.83;2.00;;;;;;;;;;6357675;22;20006;-81
2023/04/13 04:35:56;;;;;;;4.90;1.88;;;;;;;;;;6327127;22;20054;-80
2023/04/13 04:38:23;;;;;;;6.05;2.17;;;;;;;;;;6354580;22;20003;-81
2023/04/13 04:40:49;;;;;;;4.40;2.15;;;;;;;;;;6326799;22;20003;-81
2023/04/13 04:43:16;;;;;;;3.63;2.35;;;;;;;;;;6353600;22;20102;-80
2023/04/13 04:45:42;;;;;;;4.82;1.90;;;;;;;;;;6354417;22;19999;-80
2023/04/13 04:48:10;;;;;;;2.78;1.70;;;;;;;;;;6354151;22;20006;-80
2023/04/13 04:50:43;;;;;;;4.72;2.08;;;;;;;;;;6325753;22;20006;-80
2023/04/13 04:53:10;;;;;;;4.00;2.20;;;;;;;;;;6327236;22;20022;-79
2023/04/13 04:55:36;;;;;;;3.03;2.28;;;;;;;;;;6354368;22;20020;-80
2023/04/13 04:58:02;;;;;;;3.30;1.85;;;;;;;;;;6326385;22;20467;-80
2023/04/13 05:00:31;;;;;;;3.08;1.80;;;;;;;;;;6352182;22;20052;-80
2023/04/13 05:02:59;;;;;;;3.17;1.80;;;;;;;;;;6320861;22;20009;-80
2023/04/13 05:05:25;;;;;;;4.10;2.15;;;;;;;;;;6323414;22;20013;-80
2023/04/13 05:07:52;;;;;;;3.70;2.10;;;;;;;;;;6349949;22;20003;-80
2023/04/13 05:10:18;;;;;;;4.28;1.88;;;;;;;;;;6319012;22;20334;-80
2023/04/13 05:12:44;;;;;;;3.40;2.17;;;;;;;;;;6320021;22;20399;-81
2023/04/13 05:15:11;;;;;;;2.65;2.10;;;;;;;;;;6318247;22;20002;-80
2023/04/13 05:17:37;;;;;;;3.08;1.75;;;;;;;;;;6321791;22;20086;-80
2023/04/13 05:20:06;;;;;;;3.00;1.90;;;;;;;;;;6352886;22;20006;-82
2023/04/13 05:22:33;;;;;;;4.10;2.20;;;;;;;;;;6322137;22;20011;-80
2023/04/13 05:24:59;;;;;;;3.58;1.83;;;;;;;;;;6357196;22;19983;-80
2023/04/13 05:27:25;;;;;;;6.30;2.28;;;;;;;;;;6356332;22;20051;-81
2023/04/13 05:29:51;;;;;;;2.65;1.80;;;;;;;;;;6347985;22;19998;-82
2023/04/13 05:32:18;;;;;;;5.25;1.77;;;;;;;;;;6333261;22;20022;-81
2023/04/13 05:34:44;;;;;;;10.13;2.13;;;;;;;;;;6356083;22;20421;-80
2023/04/13 05:37:10;;;;;;;5.22;1.95;;;;;;;;;;6330156;22;20003;-81
2023/04/13 05:39:37;;;;;;;3.50;2.08;;;;;;;;;;6330918;22;20006;-81
2023/04/13 05:42:04;;;;;;;5.88;1.80;;;;;;;;;;6327850;22;20003;-81
2023/04/13 05:44:30;;;;;;;3.65;1.80;;;;;;;;;;6330484;22;20078;-81
2023/04/13 05:46:56;;;;;;;5.47;2.10;;;;;;;;;;6328722;22;20310;-81
2023/04/13 05:49:22;;;;;;;2.70;1.90;;;;;;;;;;6325571;22;20032;-80
2023/04/13 05:51:50;;;;;;;5.97;2.53;;;;;;;;;;6322445;22;19983;-79
2023/04/13 05:54:16;;;;;;;5.15;1.98;;;;;;;;;;6362647;22;19991;-80
2023/04/13 05:56:42;;;;;;;2.53;1.77;;;;;;;;;;6356602;22;20014;-81
2023/04/13 05:59:10;;;;;;;4.32;2.75;;;;;;;;;;6328663;22;20007;-80
2023/04/13 06:01:39;;;;;;;6.80;2.15;;;;;;;;;;6326435;22;20024;-81
2023/04/13 06:04:08;;;;;;;3.40;1.90;;;;;;;;;;6353369;22;20006;-79
2023/04/13 06:06:34;;;;;;;5.22;1.80;;;;;;;;;;6322102;22;20211;-82
2023/04/13 06:09:01;;;;;;;5.40;2.20;;;;;;;;;;6323112;22;20101;-81
2023/04/13 06:11:27;;;;;;;3.70;1.80;;;;;;;;;;6320516;22;20009;-80
2023/04/13 06:13:53;;;;;;;5.22;2.13;;;;;;;;;;6349357;22;20504;-80
2023/04/13 06:16:22;;;;;;;5.28;2.30;;;;;;;;;;6316345;22;20018;-82
2023/04/13 06:18:48;;;;;;;5.35;1.80;;;;;;;;;;6315417;22;20067;-81
2023/04/13 06:21:15;;;;;;;8.27;2.20;;;;;;;;;;6352559;22;20032;-82
2023/04/13 06:23:44;;;;;;;5.88;1.92;;;;;;;;;;6326509;22;20015;-81
2023/04/13 06:26:11;;;;;;;5.32;1.80;;;;;;;;;;6334587;22;20006;-83
2023/04/13 06:28:37;;;;;;;3.42;1.85;;;;;;;;;;6335526;22;20015;-81
2023/04/13 06:31:03;;;;;;;2.97;1.70;;;;;;;;;;6351074;22;20003;-82
2023/04/13 06:33:30;;;;;;;2.33;1.90;;;;;;;;;;6346582;22;19998;-82
2023/04/13 06:35:56;;;;;;;3.42;1.75;;;;;;;;;;6320965;22;19999;-81
2023/04/13 06:38:22;;;;;;;3.92;2.33;;;;;;;;;;6353089;22;19995;-81
2023/04/13 06:40:49;;;;;;;3.80;1.92;;;;;;;;;;6326413;22;20010;-81
2023/04/13 06:43:15;;;;;;;4.40;1.90;;;;;;;;;;6351728;22;20445;-81
2023/04/13 06:45:41;;;;;;;5.45;2.28;;;;;;;;;;6323626;22;20345;-82
2023/04/13 06:48:10;;;;;;;3.10;2.10;;;;;;;;;;6301669;22;20019;-80
2023/04/13 06:50:46;;;;;;;3.80;1.92;;;;;;;;;;6312082;22;20063;-77
2023/04/13 06:53:12;;;;;;;8.05;2.13;;;;;;;;;;6318931;22;20003;-80
2023/04/13 06:55:44;;;;;;;6.75;2.20;;;;;;;;;;6311411;22;19995;-81
2023/04/13 06:58:10;;;;;;;5.53;2.47;;;;;;;;;;6318539;22;20062;-80
2023/04/13 07:00:36;;;;;;;4.40;2.17;;;;;;;;;;6305290;22;20057;-80
2023/04/13 07:03:02;;;;;;;3.13;1.92;;;;;;;;;;6304372;22;20066;-80
2023/04/13 07:05:29;;;;;;;4.03;1.95;;;;;;;;;;6305569;22;20007;-81
2023/04/13 07:08:02;;;;;;;6.10;2.20;;;;;;;;;;6318999;22;20393;-81
2023/04/13 07:10:45;;;;;;;3.10;2.10;;;;;;;;;;6308094;22;20121;-82
2023/04/13 07:13:11;;;;;;;9.25;3.00;;;;;;;;;;6310486;22;20014;-78
2023/04/13 07:15:37;;;;;;;4.57;1.90;;;;;;;;;;6316281;22;20021;-79
2023/04/13 07:18:04;;;;;;;5.00;1.83;;;;;;;;;;6315344;22;20022;-80
2023/04/13 07:20:30;;;;;;;6.05;2.28;;;;;;;;;;6311030;22;20624;-80
2023/04/13 07:22:56;;;;;;;5.80;2.15;;;;;;;;;;6312089;22;19995;-80
2023/04/13 07:25:22;;;;;;;4.20;2.00;;;;;;;;;;6307287;22;19999;-81
2023/04/13 07:27:48;;;;;;;4.60;2.38;;;;;;;;;;6309341;22;20402;-80
2023/04/13 07:33:24;;;;;;;6.97;2.10;;;;;;;;;;6342330;22;20149;-81
2023/04/13 07:35:57;;;;;;;9.13;2.20;;;;;;;;;;6341332;22;20019;-82
2023/04/13 07:38:26;;;;;;;4.07;2.10;;;;;;;;;;6309073;22;20059;-81
2023/04/13 07:40:52;;;;;;;8.45;2.95;;;;;;;;;;6335668;22;20006;-80
2023/04/13 07:43:18;;;;;;;3.47;2.38;;;;;;;;;;6311972;22;20007;-80
2023/04/13 07:45:44;;;;;;;12.18;2.65;;;;;;;;;;6333505;22;19995;-81
2023/04/13 07:48:10;;;;;;;5.43;2.63;;;;;;;;;;6306338;22;20007;-80
2023/04/13 07:50:56;;;;;;;4.10;2.53;;;;;;;;;;6343647;22;19999;-81
2023/04/13 07:53:25;;;;;;;9.23;2.55;;;;;;;;;;6351643;22;20017;-81
2023/04/13 07:56:01;;;;;;;4.38;2.20;;;;;;;;;;6316235;22;20003;-81
2023/04/13 07:58:27;;;;;;;6.13;2.22;;;;;;;;;;6310913;22;20013;-80
2023/04/13 08:00:53;;;;;;;18.45;2.90;;;;;;;;;;6305065;22;20007;-80
2023/04/13 08:03:20;;;;;;;48.17;5.57;;;;;;;;;;6307446;22;20007;-79
2023/04/13 08:05:46;;;;;;;72.90;9.80;;;;;;;;;;6329966;22;20002;-80
2023/04/13 08:08:12;;;;;;;56.15;5.40;;;;;;;;;;6334613;22;20442;-80
2023/04/13 08:10:38;;;;;;;24.55;4.80;;;;;;;;;;6306574;22;20002;-82
2023/04/13 08:13:04;;;;;;;168.95;19.98;;;;;;;;;;6339615;22;20002;-80
2023/04/13 08:15:30;;;;;;;20.38;3.65;;;;;;;;;;6337587;22;20010;-80
2023/04/13 08:17:58;;;;;;;47.60;18.60;;;;;;;;;;6334362;22;20022;-79
2023/04/13 08:20:24;;;;;;;38.47;11.68;;;;;;;;;;6335211;22;20432;-78
2023/04/13 08:22:51;;;;;;;17.92;4.55;;;;;;;;;;6306904;22;20423;-79
2023/04/13 08:25:17;;;;;;;15.93;6.32;;;;;;;;;;6334575;22;20014;-80
2023/04/13 08:27:44;;;;;;;111.18;15.65;;;;;;;;;;6307764;22;20032;-81
2023/04/13 08:30:13;;;;;;;17.33;3.85;;;;;;;;;;6336482;22;20027;-81
2023/04/13 08:32:39;;;;;;;9.10;2.78;;;;;;;;;;6313305;22;20011;-81
2023/04/13 08:35:06;;;;;;;11.82;3.38;;;;;;;;;;6296641;22;19998;-80
2023/04/13 08:37:36;;;;;;;7.53;2.72;;;;;;;;;;6298810;22;20003;-82
2023/04/13 08:40:06;;;;;;;6.93;2.72;;;;;;;;;;6328856;22;20030;-79
2023/04/13 08:42:36;;;;;;;4.28;2.47;;;;;;;;;;6314027;22;20466;-81
2023/04/13 08:45:12;;;;;;;14.73;2.72;;;;;;;;;;6347444;22;20331;-81
2023/04/13 08:47:42;;;;;;;7.97;2.35;;;;;;;;;;6343945;22;20003;-81
2023/04/13 08:50:09;;;;;;;11.55;2.95;;;;;;;;;;6319464;22;20317;-80
2023/04/13 08:52:47;;;;;;;10.50;2.88;;;;;;;;;;6329891;22;20011;-82
2023/04/13 08:55:55;;;;;;;3.70;1.92;;;;;;;;;;6353735;22;20002;-82
2023/04/13 08:58:23;;;;;;;9.77;3.42;;;;;;;;;;6323461;22;20032;-81
2023/04/13 09:00:52;;;;;;;6.00;2.20;;;;;;;;;;6321231;22;20480;-81
2023/04/13 09:03:23;;;;;;;6.55;2.83;;;;;;;;;;6321300;22;20003;-81
2023/04/13 09:05:57;;;;;;;6.22;2.20;;;;;;;;;;6318994;22;20024;-82
2023/04/13 09:08:24;;;;;;;4.18;2.10;;;;;;;;;;6346668;22;20010;-81
2023/04/13 09:10:51;;;;;;;9.70;2.88;;;;;;;;;;6317543;22;20003;-80
2023/04/13 09:13:17;;;;;;;4.07;2.20;;;;;;;;;;6318723;22;20485;-81
2023/04/13 09:15:46;;;;;;;4.25;2.00;;;;;;;;;;6315454;22;20411;-80
2023/04/13 09:18:13;;;;;;;2.72;1.80;;;;;;;;;;6341593;22;20025;-80
2023/04/13 09:20:40;;;;;;;6.82;2.85;;;;;;;;;;6309690;22;20010;-80
2023/04/13 09:23:14;;;;;;;5.50;2.00;;;;;;;;;;6338005;22;20006;-80
2023/04/13 09:25:41;;;;;;;10.02;2.60;;;;;;;;;;6339005;22;20014;-80
2023/04/13 09:28:15;;;;;;;6.00;2.70;;;;;;;;;;6310785;22;20033;-80
2023/04/13 09:30:47;;;;;;;5.93;3.33;;;;;;;;;;6315855;22;19994;-80
2023/04/13 09:33:14;;;;;;;7.18;2.53;;;;;;;;;;6345190;22;19995;-81
2023/04/13 09:35:40;;;;;;;8.80;2.92;;;;;;;;;;6313785;22;20029;-80
2023/04/13 09:38:14;;;;;;;8.63;2.35;;;;;;;;;;6342097;22;20003;-80
2023/04/13 09:40:48;;;;;;;7.63;3.30;;;;;;;;;;6352761;22;20078;-80
2023/04/13 09:43:15;;;;;;;7.43;2.40;;;;;;;;;;6316534;22;20585;-81
2023/04/13 09:45:47;;;;;;;4.45;2.28;;;;;;;;;;6325825;22;19999;-80
2023/04/13 09:48:22;;;;;;;7.50;2.30;;;;;;;;;;6323319;22;20022;-80
2023/04/13 09:54:13;;;;;;;6.07;2.20;;;;;;;;;;6349529;22;20014;-82
2023/04/13 09:56:53;;;;;;;5.00;1.80;;;;;;;;;;6357170;22;19998;-81
2023/04/13 09:59:21;;;;;;;6.97;2.45;;;;;;;;;;6361514;22;20352;-82
2023/04/13 10:02:01;;;;;;;5.43;2.60;;;;;;;;;;6353553;22;20028;-80
2023/04/13 10:04:36;;;;;;;3.55;2.22;;;;;;;;;;6329816;22;20086;-83
2023/04/13 10:07:08;;;;;;;10.15;2.83;;;;;;;;;;6361180;22;20006;-82
2023/04/13 10:09:35;;;;;;;7.47;2.75;;;;;;;;;;6331948;22;20014;-81
2023/04/13 10:12:04;;;;;;;5.15;2.40;;;;;;;;;;6332759;22;20010;-82
2023/04/13 10:14:34;;;;;;;10.93;2.38;;;;;;;;;;6331270;22;20051;-83
2023/04/13 10:17:19;;;;;;;12.55;2.53;;;;;;;;;;6328349;22;20003;-84
2023/04/13 10:19:52;;;;;;;6.55;2.50;;;;;;;;;;6360086;22;20020;-84
2023/04/13 10:22:25;;;;;;;6.28;2.80;;;;;;;;;;6360857;22;20378;-83
2023/04/13 10:25:01;;;;;;;3.15;2.40;;;;;;;;;;6363158;22;19994;-87
2023/04/13 10:27:28;;;;;;;5.78;2.40;;;;;;;;;;6337648;22;20010;-83
2023/04/13 10:29:57;;;;;;;4.63;1.85;;;;;;;;;;6334397;22;20011;-86
2023/04/13 10:32:24;;;;;;;12.38;4.07;;;;;;;;;;6333997;22;20010;-86
2023/04/13 10:34:53;;;;;;;3.15;2.10;;;;;;;;;;6332373;22;20009;-81
2023/04/13 10:40:29;;;;;;;8.00;2.35;;;;;;;;;;6305096;22;20057;-86
2023/04/13 10:42:55;;;;;;;4.97;2.40;;;;;;;;;;6328370;22;20054;-86
2023/04/13 10:45:24;;;;;;;5.45;2.22;;;;;;;;;;6324505;22;20054;-84
2023/04/13 10:47:51;;;;;;;6.05;2.50;;;;;;;;;;6321034;22;20032;-86
2023/04/13 10:50:21;;;;;;;5.35;2.30;;;;;;;;;;6323409;22;20388;-89
2023/04/13 10:53:10;;;;;;;4.28;2.10;;;;;;;;;;6319301;22;19999;-88
2023/04/13 10:55:36;;;;;;;3.78;2.45;;;;;;;;;;6313307;22;20327;-81
2023/04/13 10:58:03;;;;;;;3.90;2.15;;;;;;;;;;6317532;22;20010;-85
2023/04/13 11:00:31;;;;;;;5.03;2.20;;;;;;;;;;6325164;22;20031;-86
2023/04/13 11:02:58;;;;;;;6.10;2.60;;;;;;;;;;6318601;22;20026;-85
2023/04/13 11:05:28;;;;;;;7.43;2.08;;;;;;;;;;6320806;22;19999;-86
2023/04/13 11:07:55;;;;;;;4.88;2.08;;;;;;;;;;6321742;22;20566;-84
2023/04/13 11:10:28;;;;;;;8.40;2.28;;;;;;;;;;6315128;22;20005;-84
2023/04/13 11:12:57;;;;;;;6.20;2.70;;;;;;;;;;6316239;22;20003;-84
2023/04/13 11:15:28;;;;;;;11.85;2.40;;;;;;;;;;6315423;22;19995;-82
2023/04/13 11:17:56;;;;;;;6.72;2.70;;;;;;;;;;6320212;22;20003;-85
2023/04/13 11:20:38;;;;;;;6.13;3.30;;;;;;;;;;6326010;22;20363;-87
2023/04/13 11:23:05;;;;;;;3.88;2.30;;;;;;;;;;6321229;22;20010;-89
2023/04/13 11:25:33;;;;;;;9.70;3.30;;;;;;;;;;6321191;22;20004;-87
2023/04/13 11:28:01;;;;;;;7.97;3.05;;;;;;;;;;6315556;22;20007;-86
2023/04/13 11:30:28;;;;;;;4.40;2.72;;;;;;;;;;6311834;22;20630;-84
2023/04/13 11:32:54;;;;;;;5.40;2.20;;;;;;;;;;6312409;22;20065;-84
2023/04/13 11:35:22;;;;;;;5.35;2.30;;;;;;;;;;6312369;22;20489;-84
2023/04/13 11:37:52;;;;;;;6.07;2.75;;;;;;;;;;6310054;22;20014;-85
2023/04/13 11:40:26;;;;;;;6.03;2.30;;;;;;;;;;6312760;22;20015;-85
2023/04/13 11:43:00;;;;;;;6.72;2.63;;;;;;;;;;6313356;22;20003;-86
2023/04/13 11:45:28;;;;;;;6.30;2.55;;;;;;;;;;6289454;22;20058;-83
2023/04/13 11:47:55;;;;;;;4.40;2.42;;;;;;;;;;6323774;22;20039;-84
2023/04/13 11:50:22;;;;;;;4.47;2.72;;;;;;;;;;6312740;22;20007;-82
2023/04/13 11:52:49;;;;;;;4.72;2.53;;;;;;;;;;6309384;22;20423;-84
2023/04/13 11:55:16;;;;;;;4.40;2.58;;;;;;;;;;6307024;22;20434;-85
2023/04/13 11:57:43;;;;;;;2.40;2.13;;;;;;;;;;6303371;22;20013;-84
2023/04/13 12:00:17;;;;;;;5.88;2.67;;;;;;;;;;6308788;22;20064;-86
2023/04/13 12:02:44;;;;;;;3.63;2.10;;;;;;;;;;6306244;22;20010;-83
2023/04/13 12:05:23;;;;;;;4.50;1.95;;;;;;;;;;6304248;22;20387;-84
2023/04/13 12:07:54;;;;;;;5.18;2.22;;;;;;;;;;6300411;22;20006;-84
2023/04/13 12:10:21;;;;;;;10.05;2.55;;;;;;;;;;6301803;22;20017;-86
2023/04/13 12:12:56;;;;;;;6.43;2.30;;;;;;;;;;6303017;22;20034;-85
2023/04/13 12:15:24;;;;;;;4.40;2.78;;;;;;;;;;6303754;22;20003;-84
2023/04/13 12:17:53;;;;;;;4.60;2.95;;;;;;;;;;6302994;22;20031;-83
2023/04/13 12:20:19;;;;;;;3.80;2.20;;;;;;;;;;6300096;22;20022;-82
2023/04/13 12:22:46;;;;;;;4.13;2.55;;;;;;;;;;6301382;22;20017;-81
2023/04/13 12:25:22;;;;;;;4.10;2.35;;;;;;;;;;6302263;22;20017;-81
2023/04/13 12:27:50;;;;;;;4.95;2.92;;;;;;;;;;6304017;22;20086;-81
2023/04/13 12:30:16;;;;;;;5.43;2.30;;;;;;;;;;6301585;22;20003;-82
2023/04/13 12:32:43;;;;;;;6.20;2.30;;;;;;;;;;6299236;22;20004;-82
2023/04/13 12:35:09;;;;;;;5.35;1.98;;;;;;;;;;6300535;22;20459;-83
2023/04/13 12:37:40;;;;;;;2.78;2.10;;;;;;;;;;6301357;22;20003;-82
2023/04/13 12:40:11;;;;;;;4.80;2.33;;;;;;;;;;6314090;22;20023;-77
2023/04/13 12:42:42;;;;;;;4.07;2.40;;;;;;;;;;6303465;22;20030;-80
2023/04/13 12:45:09;;;;;;;4.60;2.30;;;;;;;;;;6303915;22;20377;-81
2023/04/13 12:47:35;;;;;;;3.78;2.33;;;;;;;;;;6303285;22;20038;-82
2023/04/13 12:50:05;;;;;;;3.65;2.20;;;;;;;;;;6300842;22;20511;-80
2023/04/13 12:52:32;;;;;;;5.18;2.00;;;;;;;;;;6331221;22;20022;-80
2023/04/13 12:54:58;;;;;;;5.63;2.30;;;;;;;;;;6301001;22;20014;-80
2023/04/13 12:57:26;;;;;;;5.30;2.30;;;;;;;;;;6331222;22;20007;-80
2023/04/13 12:59:52;;;;;;;4.68;2.38;;;;;;;;;;6301703;22;20007;-79
2023/04/13 13:02:18;;;;;;;3.10;2.40;;;;;;;;;;6330834;22;20069;-79
2023/04/13 13:04:44;;;;;;;3.00;2.13;;;;;;;;;;6304061;22;20011;-80
2023/04/13 13:07:10;;;;;;;2.50;1.90;;;;;;;;;;6304348;22;20014;-80
2023/04/13 13:09:36;;;;;;;2.70;2.00;;;;;;;;;;6331170;22;20013;-80
2023/04/13 13:12:03;;;;;;;2.95;2.33;;;;;;;;;;6302855;22;20026;-79
2023/04/13 13:14:30;;;;;;;2.63;2.00;;;;;;;;;;6303631;22;20003;-80
2023/04/13 13:16:57;;;;;;;2.30;2.10;;;;;;;;;;6298353;22;20002;-80
2023/04/13 13:19:23;;;;;;;2.20;1.90;;;;;;;;;;6303815;22;20014;-80
2023/04/13 13:21:49;;;;;;;2.53;2.20;;;;;;;;;;6328641;22;20051;-80
2023/04/13 13:24:15;;;;;;;3.10;1.80;;;;;;;;;;6303856;22;20007;-81
2023/04/13 13:26:41;;;;;;;2.88;1.88;;;;;;;;;;6330262;22;20010;-80
2023/04/13 13:29:07;;;;;;;4.45;2.20;;;;;;;;;;6303242;22;20052;-80
2023/04/13 13:31:33;;;;;;;3.70;2.10;;;;;;;;;;6303772;22;20003;-81
2023/04/13 13:34:00;;;;;;;3.60;2.20;;;;;;;;;;6304149;22;20497;-83
2023/04/13 13:36:26;;;;;;;2.75;2.00;;;;;;;;;;6303439;22;20122;-84
2023/04/13 13:38:54;;;;;;;4.88;2.13;;;;;;;;;;6305290;22;20094;-82
2023/04/13 13:41:21;;;;;;;3.92;2.38;;;;;;;;;;6304849;22;20026;-84
2023/04/13 13:43:47;;;;;;;4.78;2.53;;;;;;;;;;6333085;22;20003;-83
2023/04/13 13:46:13;;;;;;;5.95;2.20;;;;;;;;;;6304144;22;20115;-82
2023/04/13 13:48:40;;;;;;;4.85;2.30;;;;;;;;;;6301788;22;20002;-84
2023/04/13 13:51:06;;;;;;;3.90;2.10;;;;;;;;;;6301580;22;20013;-83
2023/04/13 13:53:32;;;;;;;3.53;1.90;;;;;;;;;;6306697;22;20086;-82
2023/04/13 13:55:58;;;;;;;4.50;2.53;;;;;;;;;;6305563;22;20016;-84
2023/04/13 13:58:24;;;;;;;4.55;2.25;;;;;;;;;;6307719;22;20241;-85
2023/04/13 14:00:50;;;;;;;3.72;2.00;;;;;;;;;;6305240;22;20007;-83
2023/04/13 14:03:16;;;;;;;4.72;1.92;;;;;;;;;;6332842;22;20059;-84
2023/04/13 14:05:42;;;;;;;7.15;2.60;;;;;;;;;;6332884;22;20096;-84
2023/04/13 14:08:09;;;;;;;4.95;2.33;;;;;;;;;;6308530;22;20006;-83
2023/04/13 14:10:36;;;;;;;3.28;2.05;;;;;;;;;;6335482;22;20044;-85
2023/04/13 14:13:02;;;;;;;4.05;2.17;;;;;;;;;;6310462;22;20002;-87
2023/04/13 14:15:28;;;;;;;2.88;2.00;;;;;;;;;;6310580;22;20027;-88
2023/04/13 14:17:54;;;;;;;4.80;2.70;;;;;;;;;;6311519;22;20067;-86
2023/04/13 14:20:20;;;;;;;5.13;2.45;;;;;;;;;;6312188;22;20081;-88
2023/04/13 14:22:46;;;;;;;4.00;2.60;;;;;;;;;;6340051;22;20002;-84
2023/04/13 14:25:12;;;;;;;5.18;2.28;;;;;;;;;;6308377;22;20002;-83
2023/04/13 14:27:39;;;;;;;3.47;1.90;;;;;;;;;;6336224;22;20013;-82
2023/04/13 14:30:05;;;;;;;2.88;2.03;;;;;;;;;;6306619;22;20010;-84
2023/04/13 14:32:31;;;;;;;5.25;2.10;;;;;;;;;;6302903;22;20327;-83
2023/04/13 14:34:58;;;;;;;3.60;2.10;;;;;;;;;;6301337;22;20039;-83
2023/04/13 14:37:26;;;;;;;3.35;1.98;;;;;;;;;;6303043;22;20011;-84
2023/04/13 14:39:53;;;;;;;2.65;1.77;;;;;;;;;;6331517;22;20006;-84
2023/04/13 14:42:20;;;;;;;3.85;2.00;;;;;;;;;;6306045;22;19999;-84
2023/04/13 14:44:46;;;;;;;2.60;1.98;;;;;;;;;;6332730;22;20070;-83
2023/04/13 14:47:14;;;;;;;2.75;1.83;;;;;;;;;;6306324;22;20002;-82
2023/04/13 14:49:43;;;;;;;4.70;2.00;;;;;;;;;;6332243;22;19999;-85
2023/04/13 14:52:10;;;;;;;3.92;2.20;;;;;;;;;;6281946;22;20017;-86
2023/04/13 14:54:36;;;;;;;3.15;1.92;;;;;;;;;;6307681;22;20003;-86
2023/04/13 14:57:03;;;;;;;2.70;1.75;;;;;;;;;;6305920;22;20010;-85
2023/04/13 14:59:30;;;;;;;4.68;2.00;;;;;;;;;;6304169;22;20218;-85
2023/04/13 15:01:56;;;;;;;4.93;2.05;;;;;;;;;;6306799;22;20011;-89
2023/04/13 15:04:22;;;;;;;4.70;2.05;;;;;;;;;;6307101;22;20036;-90
2023/04/13 15:06:48;;;;;;;4.60;2.03;;;;;;;;;;6305649;22;20346;-83
2023/04/13 15:09:14;;;;;;;3.70;2.38;;;;;;;;;;6305503;22;20098;-84
2023/04/13 15:11:41;;;;;;;4.35;1.85;;;;;;;;;;6308064;22;20077;-83
2023/04/13 15:14:07;;;;;;;4.07;1.85;;;;;;;;;;6337590;22;20010;-83
2023/04/13 15:16:33;;;;;;;6.15;2.47;;;;;;;;;;6308109;22;20458;-85
2023/04/13 15:18:59;;;;;;;3.10;1.85;;;;;;;;;;6336801;22;20006;-86
2023/04/13 15:21:26;;;;;;;3.80;1.90;;;;;;;;;;6307912;22;20007;-84
2023/04/13 15:23:52;;;;;;;4.30;2.00;;;;;;;;;;6338323;22;20007;-84
2023/04/13 15:26:19;;;;;;;6.20;1.88;;;;;;;;;;6311413;22;20026;-85
2023/04/13 15:28:45;;;;;;;2.85;1.55;;;;;;;;;;6339437;22;20308;-86
2023/04/13 15:31:12;;;;;;;2.03;1.77;;;;;;;;;;6311932;22;20374;-88
2023/04/13 15:33:38;;;;;;;2.25;1.63;;;;;;;;;;6311856;22;20093;-88
2023/04/13 15:36:08;;;;;;;2.47;1.77;;;;;;;;;;6312039;22;20087;-87
2023/04/13 15:38:34;;;;;;;3.35;1.70;;;;;;;;;;6313966;22;19995;-88
2023/04/13 15:41:02;;;;;;;2.15;1.67;;;;;;;;;;6307593;22;20507;-88
2023/04/13 15:43:28;;;;;;;2.40;1.85;;;;;;;;;;6310332;22;19996;-86
2023/04/13 15:45:55;;;;;;;2.30;1.90;;;;;;;;;;6307372;22;20042;-85
2023/04/13 15:48:21;;;;;;;2.80;1.60;;;;;;;;;;6311379;22;20007;-93
2023/04/13 15:50:59;;;;;;;3.45;2.05;;;;;;;;;;6314591;22;20496;-89
2023/04/13 15:53:26;;;;;;;3.88;1.90;;;;;;;;;;6319409;22;19999;-90
2023/04/13 15:55:52;;;;;;;4.93;1.80;;;;;;;;;;6312940;22;20018;-89
2023/04/13 15:58:18;;;;;;;5.57;2.20;;;;;;;;;;6315311;22;20010;-90
2023/04/13 16:00:45;;;;;;;5.28;2.10;;;;;;;;;;6314005;22;20018;-89
2023/04/13 16:03:12;;;;;;;4.80;1.92;;;;;;;;;;6318628;22;20023;-92
2023/04/13 16:05:48;;;;;;;3.53;1.90;;;;;;;;;;6317214;22;20336;-89
2023/04/13 16:08:14;;;;;;;3.03;1.83;;;;;;;;;;6323105;22;20007;-88
2023/04/13 16:10:42;;;;;;;2.53;2.05;;;;;;;;;;6319693;22;20019;-88
2023/04/13 16:13:17;;;;;;;3.67;1.80;;;;;;;;;;6330158;22;20076;-89
2023/04/13 16:15:51;;;;;;;2.08;1.80;;;;;;;;;;6332516;22;20015;-89
2023/04/13 16:18:30;;;;;;;4.47;2.35;;;;;;;;;;6309352;22;19991;-93
2023/04/13 16:23:53;;;;;;;2.55;1.80;;;;;;;;;;6320970;22;20027;-81
2023/04/13 16:26:25;;;;;;;6.63;2.83;;;;;;;;;;6332589;22;19999;-80
2023/04/13 16:34:05;;;;;;;25.58;15.15;;;;;;;;;;6304854;22;20061;-80
2023/04/13 16:36:34;;;;;;;116.30;59.58;;;;;;;;;;6328483;22;20055;-79
2023/04/13 16:39:09;;;;;;;135.23;73.97;;;;;;;;;;6328600;22;20014;-81
2023/04/13 16:41:35;;;;;;;304.50;171.97;;;;;;;;;;6330544;22;20078;-79
2023/04/13 16:44:02;;;;;;;312.55;192.30;;;;;;;;;;6356105;22;19994;-79
2023/04/13 16:46:29;;;;;;;42.20;28.65;;;;;;;;;;6359022;22;20001;-81
2023/04/13 16:48:55;;;;;;;58.88;41.38;;;;;;;;;;6323957;22;20026;-81